createdAt,value
2018-02-14T00:00:45.856Z,18.12
2018-02-14T00:01:45.803Z,18.08
2018-02-14T00:02:45.781Z,18.14
2018-02-14T00:03:45.758Z,18.23
2018-02-14T00:04:46.289Z,18.12
2018-02-14T00:05:45.734Z,18.14
2018-02-14T00:06:45.702Z,18.10
2018-02-14T00:07:45.711Z,18.14
2018-02-14T00:08:45.655Z,18.11
2018-02-14T00:09:45.635Z,18.15
2018-02-14T00:10:45.620Z,18.11
2018-02-14T00:11:45.625Z,18.12
2018-02-14T00:12:45.574Z,18.15
2018-02-14T00:13:45.554Z,18.14
2018-02-14T00:14:45.533Z,18.23
2018-02-14T00:15:45.510Z,18.29
2018-02-14T00:16:45.485Z,18.35
2018-02-14T00:17:45.506Z,18.27
2018-02-14T00:18:45.481Z,18.30
2018-02-14T00:19:45.424Z,18.25
2018-02-14T00:20:45.399Z,18.25
2018-02-14T00:21:45.385Z,18.23
2018-02-14T00:22:45.398Z,18.11
2018-02-14T00:23:45.364Z,18.14
2018-02-14T00:24:45.323Z,18.14
2018-02-14T00:25:45.307Z,18.17
2018-02-14T00:26:45.295Z,18.15
2018-02-14T00:27:45.253Z,18.18
2018-02-14T00:28:45.236Z,18.30
2018-02-14T00:29:45.250Z,18.18
2018-02-14T00:30:45.192Z,18.21
2018-02-14T00:31:45.187Z,18.12
2018-02-14T00:32:45.157Z,18.08
2018-02-14T00:33:45.165Z,18.15
2018-02-14T00:34:45.109Z,18.20
2018-02-14T00:35:45.110Z,18.11
2018-02-14T00:36:45.086Z,18.18
2018-02-14T00:37:45.043Z,18.14
2018-02-14T00:38:45.057Z,18.14
2018-02-14T00:39:45.004Z,18.10
2018-02-14T00:40:44.985Z,18.03
2018-02-14T00:41:44.998Z,18.12
2018-02-14T00:42:44.975Z,18.03
2018-02-14T00:43:44.925Z,18.07
2018-02-14T00:44:44.940Z,18.12
2018-02-14T00:45:44.885Z,18.14
2018-02-14T00:46:44.855Z,18.14
2018-02-14T00:47:44.842Z,18.11
2018-02-14T00:48:44.854Z,18.11
2018-02-14T00:49:44.800Z,18.08
2018-02-14T00:50:44.795Z,18.00
2018-02-14T00:51:44.779Z,18.08
2018-02-14T00:52:44.736Z,18.07
2018-02-14T00:53:44.745Z,18.17
2018-02-14T00:54:44.721Z,18.17
2018-02-14T00:55:44.702Z,18.12
2018-02-14T00:56:44.666Z,18.12
2018-02-14T00:57:44.626Z,18.23
2018-02-14T00:58:44.641Z,18.11
2018-02-14T00:59:44.583Z,18.08
2018-02-14T01:00:44.598Z,18.14
2018-02-14T01:01:44.580Z,18.15
2018-02-14T01:02:44.555Z,18.05
2018-02-14T01:03:44.520Z,18.05
2018-02-14T01:04:44.485Z,18.11
2018-02-14T01:05:44.461Z,18.03
2018-02-14T01:06:44.459Z,18.14
2018-02-14T01:07:44.453Z,18.14
2018-02-14T01:08:44.415Z,18.12
2018-02-14T01:09:44.412Z,18.10
2018-02-14T01:10:44.354Z,18.05
2018-02-14T01:11:44.367Z,18.08
2018-02-14T01:12:44.312Z,18.10
2018-02-14T01:13:44.331Z,18.07
2018-02-14T01:14:44.268Z,18.03
2018-02-14T01:15:44.252Z,18.07
2018-02-14T01:16:44.231Z,18.10
2018-02-14T01:17:44.244Z,18.02
2018-02-14T01:18:44.208Z,17.95
2018-02-14T01:19:44.187Z,18.08
2018-02-14T01:20:44.145Z,17.97
2018-02-14T01:21:44.148Z,18.00
2018-02-14T01:22:44.124Z,17.97
2018-02-14T01:23:44.080Z,18.10
2018-02-14T01:24:44.102Z,18.14
2018-02-14T01:25:44.042Z,18.12
2018-02-14T01:26:44.021Z,18.05
2018-02-14T01:27:44.022Z,18.15
2018-02-14T01:28:44.017Z,18.02
2018-02-14T01:29:43.998Z,18.10
2018-02-14T01:30:43.934Z,18.12
2018-02-14T01:31:43.952Z,18.14
2018-02-14T01:32:43.895Z,18.12
2018-02-14T01:33:43.875Z,18.12
2018-02-14T01:34:43.858Z,18.11
2018-02-14T01:35:43.851Z,18.07
2018-02-14T01:36:43.812Z,18.10
2018-02-14T01:37:43.797Z,18.07
2018-02-14T01:38:43.805Z,18.02
2018-02-14T01:39:43.752Z,18.10
2018-02-14T01:40:43.764Z,18.05
2018-02-14T01:41:43.747Z,18.14
2018-02-14T01:42:43.704Z,18.08
2018-02-14T01:43:43.671Z,18.10
2018-02-14T01:44:43.679Z,18.10
2018-02-14T01:45:43.626Z,18.03
2018-02-14T01:46:43.606Z,18.08
2018-02-14T01:47:43.596Z,18.10
2018-02-14T01:48:43.560Z,18.14
2018-02-14T01:49:43.559Z,18.12
2018-02-14T01:50:43.553Z,18.20
2018-02-14T01:51:43.532Z,18.20
2018-02-14T01:52:43.513Z,18.12
2018-02-14T01:53:43.491Z,18.10
2018-02-14T01:54:43.473Z,18.14
2018-02-14T01:55:43.436Z,18.14
2018-02-14T01:56:43.428Z,18.18
2018-02-14T01:57:43.375Z,18.15
2018-02-14T01:58:43.385Z,18.15
2018-02-14T01:59:43.347Z,18.14
2018-02-14T02:00:43.348Z,18.05
2018-02-14T02:01:43.287Z,18.08
2018-02-14T02:02:43.260Z,18.21
2018-02-14T02:03:43.263Z,18.17
2018-02-14T02:04:43.223Z,18.15
2018-02-14T02:05:43.206Z,18.20
2018-02-14T02:06:43.184Z,18.14
2018-02-14T02:07:43.192Z,18.25
2018-02-14T02:08:43.177Z,18.25
2018-02-14T02:09:43.122Z,18.18
2018-02-14T02:10:43.115Z,18.18
2018-02-14T02:11:43.076Z,18.14
2018-02-14T02:12:43.071Z,18.15
2018-02-14T02:13:43.071Z,18.21
2018-02-14T02:14:43.016Z,18.23
2018-02-14T02:15:42.998Z,18.08
2018-02-14T02:16:42.978Z,18.15
2018-02-14T02:17:42.969Z,18.12
2018-02-14T02:18:42.951Z,18.21
2018-02-14T02:19:42.944Z,18.15
2018-02-14T02:20:42.910Z,18.18
2018-02-14T02:21:42.865Z,18.07
2018-02-14T02:22:42.880Z,18.17
2018-02-14T02:23:42.859Z,18.14
2018-02-14T02:24:42.880Z,18.18
2018-02-14T02:25:42.814Z,18.14
2018-02-14T02:26:42.800Z,18.05
2018-02-14T02:27:42.756Z,18.17
2018-02-14T02:28:42.751Z,18.12
2018-02-14T02:29:42.716Z,18.10
2018-02-14T02:30:42.678Z,18.10
2018-02-14T02:31:42.657Z,18.14
2018-02-14T02:32:42.638Z,18.14
2018-02-14T02:33:42.615Z,18.20
2018-02-14T02:34:42.618Z,18.12
2018-02-14T02:35:42.591Z,18.10
2018-02-14T02:36:42.561Z,18.17
2018-02-14T02:37:42.553Z,18.15
2018-02-14T02:38:42.507Z,18.15
2018-02-14T02:39:42.507Z,18.08
2018-02-14T02:40:42.487Z,18.10
2018-02-14T02:41:42.469Z,18.11
2018-02-14T02:42:42.461Z,18.10
2018-02-14T02:43:42.437Z,18.12
2018-02-14T02:44:42.417Z,18.00
2018-02-14T02:45:42.399Z,18.14
2018-02-14T02:46:42.341Z,18.03
2018-02-14T02:47:42.318Z,18.10
2018-02-14T02:48:42.335Z,18.07
2018-02-14T02:49:42.319Z,18.11
2018-02-14T02:50:42.290Z,18.20
2018-02-14T02:51:42.269Z,18.17
2018-02-14T02:52:42.223Z,18.11
2018-02-14T02:53:42.196Z,18.11
2018-02-14T02:54:42.175Z,18.08
2018-02-14T02:55:42.156Z,18.00
2018-02-14T02:56:42.132Z,18.12
2018-02-14T02:57:42.120Z,17.96
2018-02-14T02:58:42.091Z,18.05
2018-02-14T02:59:42.068Z,18.07
2018-02-14T03:00:42.054Z,18.08
2018-02-14T03:01:42.026Z,18.07
2018-02-14T03:02:42.007Z,18.05
2018-02-14T03:03:41.984Z,18.11
2018-02-14T03:04:41.963Z,17.95
2018-02-14T03:05:41.978Z,17.93
2018-02-14T03:06:41.921Z,18.02
2018-02-14T03:07:41.940Z,18.00
2018-02-14T03:08:41.876Z,18.12
2018-02-14T03:09:41.859Z,18.11
2018-02-14T03:10:41.856Z,18.10
2018-02-14T03:11:41.819Z,18.00
2018-02-14T03:12:41.817Z,18.08
2018-02-14T03:13:41.809Z,18.08
2018-02-14T03:14:41.770Z,18.03
2018-02-14T03:15:41.736Z,18.14
2018-02-14T03:16:41.715Z,18.14
2018-02-14T03:17:41.690Z,18.11
2018-02-14T03:18:41.706Z,18.12
2018-02-14T03:19:41.655Z,18.11
2018-02-14T03:20:41.631Z,18.02
2018-02-14T03:21:41.639Z,18.10
2018-02-14T03:22:41.585Z,18.02
2018-02-14T03:23:41.563Z,18.11
2018-02-14T03:24:41.562Z,18.05
2018-02-14T03:25:41.545Z,18.14
2018-02-14T03:26:41.501Z,18.05
2018-02-14T03:27:41.513Z,18.03
2018-02-14T03:28:41.457Z,18.14
2018-02-14T03:29:41.437Z,18.18
2018-02-14T03:30:41.422Z,18.17
2018-02-14T03:31:41.403Z,18.11
2018-02-14T03:32:41.399Z,18.05
2018-02-14T03:33:41.374Z,17.92
2018-02-14T03:34:41.333Z,17.95
2018-02-14T03:35:41.313Z,17.89
2018-02-14T03:36:41.293Z,17.84
2018-02-14T03:37:41.310Z,17.87
2018-02-14T03:38:41.286Z,17.86
2018-02-14T03:39:41.265Z,17.79
2018-02-14T03:40:41.209Z,17.84
2018-02-14T03:41:41.192Z,17.72
2018-02-14T03:42:41.187Z,17.72
2018-02-14T03:43:41.148Z,17.70
2018-02-14T03:44:41.157Z,17.66
2018-02-14T03:45:41.110Z,17.70
2018-02-14T03:46:41.118Z,17.58
2018-02-14T03:47:41.060Z,17.71
2018-02-14T03:48:41.061Z,17.70
2018-02-14T03:49:41.023Z,17.58
2018-02-14T03:50:41.034Z,17.56
2018-02-14T03:51:40.999Z,17.63
2018-02-14T03:52:40.989Z,17.63
2018-02-14T03:53:40.938Z,17.58
2018-02-14T03:54:40.935Z,17.52
2018-02-14T03:55:40.894Z,17.51
2018-02-14T03:56:40.907Z,17.58
2018-02-14T03:57:40.886Z,17.59
2018-02-14T03:58:40.854Z,17.52
2018-02-14T03:59:40.822Z,17.49
2018-02-14T04:00:40.790Z,17.52
2018-02-14T04:01:40.767Z,17.63
2018-02-14T04:02:40.743Z,17.59
2018-02-14T04:03:40.755Z,17.54
2018-02-14T04:04:40.724Z,17.56
2018-02-14T04:05:40.716Z,17.52
2018-02-14T04:06:40.693Z,17.55
2018-02-14T04:07:40.674Z,17.51
2018-02-14T04:08:40.650Z,17.59
2018-02-14T04:09:40.593Z,17.62
2018-02-14T04:10:40.614Z,17.64
2018-02-14T04:11:40.551Z,17.58
2018-02-14T04:12:40.552Z,17.62
2018-02-14T04:13:40.514Z,17.59
2018-02-14T04:14:40.508Z,17.62
2018-02-14T04:15:40.484Z,17.63
2018-02-14T04:16:40.450Z,17.63
2018-02-14T04:17:40.441Z,17.62
2018-02-14T04:18:40.425Z,17.59
2018-02-14T04:19:40.404Z,17.63
2018-02-14T04:20:40.364Z,17.63
2018-02-14T04:21:40.341Z,17.66
2018-02-14T04:22:40.325Z,17.68
2018-02-14T04:23:40.298Z,17.66
2018-02-14T04:24:40.295Z,17.64
2018-02-14T04:25:40.259Z,17.58
2018-02-14T04:26:40.268Z,17.68
2018-02-14T04:27:40.210Z,17.70
2018-02-14T04:28:40.200Z,17.64
2018-02-14T04:29:40.173Z,17.63
2018-02-14T04:30:40.185Z,17.64
2018-02-14T04:31:40.145Z,17.63
2018-02-14T04:32:40.110Z,17.58
2018-02-14T04:33:40.087Z,17.66
2018-02-14T04:34:40.066Z,17.64
2018-02-14T04:35:40.040Z,17.63
2018-02-14T04:36:40.024Z,17.66
2018-02-14T04:37:40.043Z,17.70
2018-02-14T04:40:23.772Z,17.64
2018-02-14T04:41:23.755Z,17.72
2018-02-14T04:42:23.709Z,17.66
2018-02-14T04:43:23.725Z,17.71
2018-02-14T04:44:23.707Z,17.70
2018-02-14T04:45:23.683Z,17.71
2018-02-14T04:46:23.658Z,17.74
2018-02-14T04:47:23.645Z,17.74
2018-02-14T04:48:23.583Z,17.77
2018-02-14T04:49:23.563Z,17.79
2018-02-14T04:50:23.578Z,17.78
2018-02-14T04:51:23.554Z,17.77
2018-02-14T04:52:23.535Z,17.81
2018-02-14T04:53:23.487Z,17.84
2018-02-14T04:54:24.026Z,17.72
2018-02-14T04:55:23.455Z,17.79
2018-02-14T04:56:23.415Z,17.79
2018-02-14T04:57:23.430Z,17.72
2018-02-14T04:58:23.411Z,17.64
2018-02-14T04:59:23.357Z,17.75
2018-02-14T05:00:23.363Z,17.75
2018-02-14T05:01:23.312Z,17.77
2018-02-14T05:02:23.293Z,17.66
2018-02-14T05:03:23.304Z,17.70
2018-02-14T05:04:23.286Z,17.64
2018-02-14T05:05:23.245Z,17.71
2018-02-14T05:06:23.209Z,17.72
2018-02-14T05:07:23.220Z,17.63
2018-02-14T05:08:23.161Z,17.74
2018-02-14T05:09:23.148Z,17.71
2018-02-14T05:10:23.144Z,17.63
2018-02-14T05:11:23.118Z,17.74
2018-02-14T05:12:23.113Z,17.63
2018-02-14T05:13:23.076Z,17.66
2018-02-14T05:14:23.068Z,17.71
2018-02-14T05:15:23.048Z,17.62
2018-02-14T05:16:22.996Z,17.59
2018-02-14T05:17:22.973Z,17.62
2018-02-14T05:18:22.984Z,17.64
2018-02-14T05:19:22.927Z,17.59
2018-02-14T05:20:22.931Z,17.55
2018-02-14T05:21:22.914Z,17.52
2018-02-14T05:22:22.867Z,17.46
2018-02-14T05:23:22.861Z,17.46
2018-02-14T05:24:22.825Z,17.41
2018-02-14T05:25:22.823Z,17.30
2018-02-14T05:26:22.784Z,17.28
2018-02-14T05:27:22.767Z,17.33
2018-02-14T05:28:22.740Z,17.36
2018-02-14T05:29:22.719Z,17.33
2018-02-14T05:30:22.696Z,17.19
2018-02-14T05:31:23.124Z,17.25
2018-02-14T05:32:22.672Z,17.25
2018-02-14T05:33:22.638Z,17.30
2018-02-14T05:34:22.645Z,17.25
2018-02-14T05:35:22.589Z,17.26
2018-02-14T05:36:22.571Z,17.15
2018-02-14T05:37:22.584Z,17.19
2018-02-14T05:38:22.539Z,17.22
2018-02-14T05:39:22.506Z,17.22
2018-02-14T05:40:22.520Z,17.16
2018-02-14T05:41:22.496Z,17.16
2018-02-14T05:42:22.458Z,17.16
2018-02-14T05:43:22.416Z,17.22
2018-02-14T05:44:22.394Z,17.15
2018-02-14T05:45:22.377Z,17.18
2018-02-14T05:46:22.356Z,17.14
2018-02-14T05:47:22.331Z,17.18
2018-02-14T05:48:22.343Z,17.19
2018-02-14T05:49:22.295Z,17.16
2018-02-14T05:50:22.269Z,17.25
2018-02-14T05:51:22.239Z,17.21
2018-02-14T05:52:22.218Z,17.21
2018-02-14T05:53:22.232Z,17.19
2018-02-14T05:54:22.214Z,17.23
2018-02-14T05:55:22.157Z,17.22
2018-02-14T05:56:22.171Z,17.22
2018-02-14T05:57:22.112Z,17.23
2018-02-14T05:58:22.091Z,17.31
2018-02-14T05:59:22.110Z,17.34
2018-02-14T06:00:22.084Z,17.37
2018-02-14T06:01:22.063Z,17.40
2018-02-14T06:02:22.010Z,17.21
2018-02-14T06:03:21.989Z,17.18
2018-02-14T06:04:22.000Z,17.25
2018-02-14T06:05:21.981Z,17.18
2018-02-14T06:06:21.955Z,17.23
2018-02-14T06:07:21.899Z,17.15
2018-02-14T06:08:21.916Z,17.22
2018-02-14T06:09:21.859Z,17.14
2018-02-14T06:10:21.874Z,17.16
2018-02-14T06:11:21.816Z,17.21
2018-02-14T06:12:21.790Z,17.19
2018-02-14T06:13:21.772Z,17.22
2018-02-14T06:14:21.750Z,17.16
2018-02-14T06:15:21.734Z,17.16
2018-02-14T06:16:21.711Z,17.18
2018-02-14T06:17:21.684Z,17.04
2018-02-14T06:18:21.663Z,17.18
2018-02-14T06:19:21.678Z,17.12
2018-02-14T06:20:21.654Z,17.15
2018-02-14T06:21:21.602Z,17.12
2018-02-14T06:22:21.616Z,17.16
2018-02-14T06:23:21.570Z,17.15
2018-02-14T06:24:21.565Z,17.16
2018-02-14T06:25:22.082Z,17.16
2018-02-14T06:26:21.494Z,17.25
2018-02-14T06:27:21.476Z,17.18
2018-02-14T06:28:21.469Z,17.18
2018-02-14T06:29:21.459Z,17.18
2018-02-14T06:30:21.404Z,17.18
2018-02-14T06:31:21.403Z,17.21
2018-02-14T06:32:21.396Z,17.22
2018-02-14T06:33:21.358Z,17.21
2018-02-14T06:34:21.352Z,17.21
2018-02-14T06:35:21.317Z,17.36
2018-02-14T06:36:21.316Z,17.22
2018-02-14T06:37:21.253Z,17.22
2018-02-14T06:38:21.269Z,17.21
2018-02-14T06:39:21.217Z,17.22
2018-02-14T06:40:21.196Z,17.30
2018-02-14T06:41:21.205Z,17.26
2018-02-14T06:42:21.183Z,17.28
2018-02-14T06:43:21.162Z,17.38
2018-02-14T06:44:21.137Z,17.30
2018-02-14T06:45:21.117Z,17.37
2018-02-14T06:46:21.098Z,17.33
2018-02-14T06:47:21.076Z,17.38
2018-02-14T06:48:21.015Z,17.28
2018-02-14T06:49:21.020Z,17.34
2018-02-14T06:50:20.978Z,17.33
2018-02-14T06:51:20.952Z,17.44
2018-02-14T06:52:20.929Z,17.46
2018-02-14T06:53:20.912Z,17.33
2018-02-14T06:54:20.902Z,17.37
2018-02-14T06:55:20.874Z,17.36
2018-02-14T06:56:20.884Z,17.48
2018-02-14T06:57:20.862Z,17.49
2018-02-14T06:58:20.813Z,17.52
2018-02-14T06:59:20.822Z,17.49
2018-02-14T07:00:20.798Z,17.44
2018-02-14T07:01:20.742Z,17.54
2018-02-14T07:02:20.719Z,17.54
2018-02-14T07:03:20.700Z,17.51
2018-02-14T07:04:20.678Z,17.48
2018-02-14T07:05:20.664Z,17.63
2018-02-14T07:06:20.671Z,17.64
2018-02-14T07:07:20.652Z,17.66
2018-02-14T07:08:20.625Z,17.63
2018-02-14T07:09:20.606Z,17.70
2018-02-14T07:10:20.584Z,17.70
2018-02-14T07:11:20.534Z,17.66
2018-02-14T07:12:20.509Z,17.78
2018-02-14T07:13:20.507Z,17.71
2018-02-14T07:14:20.488Z,17.72
2018-02-14T07:15:20.482Z,17.71
2018-02-14T07:16:20.459Z,17.70
2018-02-14T07:17:20.410Z,17.70
2018-02-14T07:18:20.418Z,17.72
2018-02-14T07:19:20.402Z,17.79
2018-02-14T07:20:20.342Z,17.75
2018-02-14T07:21:20.351Z,17.77
2018-02-14T07:22:20.325Z,17.79
2018-02-14T07:23:20.280Z,17.79
2018-02-14T07:24:20.262Z,17.82
2018-02-14T07:25:20.238Z,17.82
2018-02-14T07:26:20.233Z,17.84
2018-02-14T07:27:20.192Z,17.81
2018-02-14T07:28:20.174Z,17.77
2018-02-14T07:29:20.165Z,17.79
2018-02-14T07:30:20.130Z,17.77
2018-02-14T07:31:20.110Z,17.77
2018-02-14T07:32:20.092Z,17.92
2018-02-14T07:33:20.064Z,17.82
2018-02-14T07:34:20.040Z,17.87
2018-02-14T07:35:20.044Z,17.77
2018-02-14T07:36:19.997Z,17.87
2018-02-14T07:37:19.986Z,17.95
2018-02-14T07:38:19.959Z,17.93
2018-02-14T07:39:19.938Z,17.92
2018-02-14T07:40:19.920Z,17.87
2018-02-14T07:41:19.916Z,17.93
2018-02-14T07:42:19.889Z,17.90
2018-02-14T07:43:19.851Z,17.79
2018-02-14T07:44:19.833Z,17.97
2018-02-14T07:45:19.836Z,17.97
2018-02-14T07:46:19.821Z,17.93
2018-02-14T07:47:19.767Z,17.87
2018-02-14T07:48:19.746Z,17.99
2018-02-14T07:49:52.937Z,17.96
2018-02-14T07:50:19.710Z,17.95
2018-02-14T07:51:19.715Z,17.97
2018-02-14T07:52:19.696Z,18.00
2018-02-14T07:53:19.637Z,18.03
2018-02-14T07:54:19.619Z,17.95
2018-02-14T07:55:19.631Z,18.05
2018-02-14T07:56:19.578Z,18.07
2018-02-14T07:57:19.555Z,18.07
2018-02-14T07:58:19.569Z,18.03
2018-02-14T07:59:19.540Z,18.05
2018-02-14T08:00:19.524Z,18.10
2018-02-14T08:01:19.473Z,18.10
2018-02-14T08:02:19.450Z,17.99
2018-02-14T08:03:19.437Z,17.96
2018-02-14T08:04:19.444Z,17.99
2018-02-14T08:05:19.390Z,18.07
2018-02-14T08:06:19.365Z,18.00
2018-02-14T08:07:19.364Z,18.03
2018-02-14T08:08:19.359Z,18.03
2018-02-14T08:09:19.300Z,18.05
2018-02-14T08:10:19.282Z,18.10
2018-02-14T08:11:19.283Z,17.96
2018-02-14T08:12:19.271Z,18.00
2018-02-14T08:13:19.220Z,18.10
2018-02-14T08:14:19.234Z,17.96
2018-02-14T08:15:19.212Z,18.05
2018-02-14T08:16:19.157Z,18.14
2018-02-14T08:17:19.135Z,17.99
2018-02-14T08:18:19.113Z,18.05
2018-02-14T08:19:19.097Z,18.07
2018-02-14T08:20:19.075Z,18.12
2018-02-14T08:21:19.082Z,18.11
2018-02-14T08:22:19.051Z,18.17
2018-02-14T08:23:19.040Z,18.12
2018-02-14T08:24:18.987Z,18.12
2018-02-14T08:25:19.542Z,18.11
2018-02-14T08:26:18.946Z,18.11
2018-02-14T08:27:18.943Z,18.20
2018-02-14T08:28:18.921Z,18.07
2018-02-14T08:29:18.880Z,18.10
2018-02-14T08:30:18.863Z,18.14
2018-02-14T08:31:18.855Z,18.12
2018-02-14T08:32:18.850Z,18.12
2018-02-14T08:33:18.797Z,18.23
2018-02-14T08:34:18.781Z,18.21
2018-02-14T08:35:18.774Z,18.26
2018-02-14T08:36:18.773Z,18.26
2018-02-14T08:37:18.735Z,18.21
2018-02-14T08:38:18.726Z,18.33
2018-02-14T08:39:18.686Z,18.32
2018-02-14T08:40:18.654Z,18.30
2018-02-14T08:41:18.664Z,18.29
2018-02-14T08:42:18.640Z,18.35
2018-02-14T08:43:18.588Z,18.25
2018-02-14T08:44:18.563Z,18.32
2018-02-14T08:45:18.582Z,18.47
2018-02-14T08:46:18.522Z,18.36
2018-02-14T08:47:18.504Z,18.44
2018-02-14T08:48:18.485Z,18.33
2018-02-14T08:49:18.488Z,18.39
2018-02-14T08:50:18.440Z,18.39
2018-02-14T08:51:18.424Z,18.36
2018-02-14T08:52:18.414Z,18.39
2018-02-14T08:53:18.394Z,18.33
2018-02-14T08:54:18.360Z,18.32
2018-02-14T08:55:18.339Z,18.27
2018-02-14T08:56:18.348Z,18.25
2018-02-14T08:57:18.291Z,18.27
2018-02-14T08:58:18.314Z,18.32
2018-02-14T08:59:18.293Z,18.30
2018-02-14T09:00:18.229Z,18.27
2018-02-14T09:01:18.243Z,18.18
2018-02-14T09:02:18.190Z,18.25
2018-02-14T09:03:18.172Z,18.18
2018-02-14T09:04:18.183Z,18.21
2018-02-14T09:05:18.162Z,18.25
2018-02-14T09:06:18.125Z,18.35
2018-02-14T09:07:18.120Z,18.32
2018-02-14T09:08:18.081Z,18.37
2018-02-14T09:09:18.047Z,18.30
2018-02-14T09:10:18.058Z,18.33
2018-02-14T09:11:18.005Z,18.35
2018-02-14T09:12:17.976Z,18.37
2018-02-14T09:13:17.963Z,18.32
2018-02-14T09:14:17.999Z,18.36
2018-02-14T09:15:17.949Z,18.44
2018-02-14T09:16:17.892Z,18.30
2018-02-14T09:17:17.907Z,18.45
2018-02-14T09:18:17.853Z,18.35
2018-02-14T09:19:17.873Z,18.27
2018-02-14T09:20:17.831Z,18.35
2018-02-14T09:21:17.798Z,18.32
2018-02-14T09:22:17.785Z,18.32
2018-02-14T09:23:17.768Z,18.37
2018-02-14T09:24:17.730Z,18.35
2018-02-14T09:25:17.707Z,18.35
2018-02-14T09:26:17.686Z,18.30
2018-02-14T09:27:17.687Z,18.33
2018-02-14T09:28:17.676Z,18.39
2018-02-14T09:29:17.641Z,18.35
2018-02-14T09:30:17.638Z,18.37
2018-02-14T09:31:17.605Z,18.30
2018-02-14T09:32:17.558Z,18.35
2018-02-14T09:33:17.558Z,18.29
2018-02-14T09:34:17.553Z,18.35
2018-02-14T09:35:17.497Z,18.39
2018-02-14T09:36:17.511Z,18.41
2018-02-14T09:37:17.490Z,18.50
2018-02-14T09:38:17.467Z,18.52
2018-02-14T09:39:17.449Z,18.58
2018-02-14T09:40:17.426Z,18.60
2018-02-14T09:41:17.374Z,18.47
2018-02-14T09:42:17.386Z,18.50
2018-02-14T09:43:17.335Z,18.58
2018-02-14T09:44:17.314Z,18.63
2018-02-14T09:45:17.290Z,18.62
2018-02-14T09:46:17.271Z,18.70
2018-02-14T09:47:17.283Z,18.78
2018-02-14T09:48:17.223Z,18.88
2018-02-14T09:49:17.225Z,18.90
2018-02-14T09:50:17.226Z,18.88
2018-02-14T09:51:50.374Z,19.06
2018-02-14T09:52:17.148Z,19.00
2018-02-14T09:53:17.163Z,19.06
2018-02-14T09:54:17.143Z,19.13
2018-02-14T09:55:17.083Z,19.07
2018-02-14T09:56:17.102Z,19.08
2018-02-14T09:57:17.069Z,19.06
2018-02-14T09:58:17.024Z,19.18
2018-02-14T09:59:17.037Z,19.04
2018-02-14T10:00:17.017Z,19.08
2018-02-14T10:01:17.005Z,19.18
2018-02-14T10:02:16.977Z,19.25
2018-02-14T10:03:16.924Z,19.33
2018-02-14T10:04:16.902Z,19.37
2018-02-14T10:05:16.885Z,19.48
2018-02-14T10:06:16.893Z,19.46
2018-02-14T10:07:16.859Z,19.58
2018-02-14T10:08:16.819Z,19.51
2018-02-14T10:09:16.795Z,19.50
2018-02-14T10:10:16.813Z,19.50
2018-02-14T10:11:16.779Z,19.44
2018-02-14T10:12:16.759Z,19.51
2018-02-14T10:13:16.720Z,19.44
2018-02-14T10:14:16.707Z,19.33
2018-02-14T10:15:16.697Z,19.31
2018-02-14T10:16:16.682Z,19.39
2018-02-14T10:17:16.672Z,19.47
2018-02-14T10:18:16.652Z,19.40
2018-02-14T10:19:16.636Z,19.46
2018-02-14T10:20:16.612Z,19.47
2018-02-14T10:21:16.593Z,19.44
2018-02-14T10:22:16.574Z,19.55
2018-02-14T10:23:16.522Z,19.48
2018-02-14T10:24:16.500Z,19.41
2018-02-14T10:25:16.520Z,19.44
2018-02-14T10:26:16.492Z,19.50
2018-02-14T10:27:16.477Z,19.59
2018-02-14T10:28:16.454Z,19.55
2018-02-14T10:29:16.404Z,19.56
2018-02-14T10:30:16.379Z,19.47
2018-02-14T10:31:16.378Z,19.58
2018-02-14T10:32:16.340Z,19.54
2018-02-14T10:33:16.324Z,19.58
2018-02-14T10:34:16.302Z,19.61
2018-02-14T10:35:16.320Z,19.63
2018-02-14T10:36:16.257Z,19.74
2018-02-14T10:37:16.273Z,19.84
2018-02-14T10:38:16.255Z,20.05
2018-02-14T10:39:16.236Z,20.23
2018-02-14T10:40:16.232Z,20.32
2018-02-14T10:41:16.165Z,20.47
2018-02-14T10:42:16.175Z,20.72
2018-02-14T10:43:16.122Z,20.77
2018-02-14T10:44:16.125Z,20.92
2018-02-14T10:45:16.100Z,21.04
2018-02-14T10:46:16.069Z,21.14
2018-02-14T10:47:16.069Z,21.10
2018-02-14T10:48:16.034Z,21.07
2018-02-14T10:49:16.013Z,21.17
2018-02-14T10:50:16.024Z,21.29
2018-02-14T10:51:16.004Z,21.38
2018-02-14T10:52:15.985Z,21.61
2018-02-14T10:53:15.957Z,21.54
2018-02-14T10:54:15.923Z,21.58
2018-02-14T10:55:15.920Z,21.59
2018-02-14T10:56:15.881Z,21.80
2018-02-14T10:57:15.883Z,21.91
2018-02-14T10:58:15.842Z,21.74
2018-02-14T10:59:15.829Z,21.74
2018-02-14T11:00:15.804Z,21.54
2018-02-14T11:01:15.808Z,21.49
2018-02-14T11:02:15.790Z,21.54
2018-02-14T11:03:15.753Z,21.49
2018-02-14T11:04:15.768Z,21.35
2018-02-14T11:05:15.749Z,21.32
2018-02-14T11:06:15.699Z,21.16
2018-02-14T11:07:15.721Z,21.07
2018-02-14T11:08:15.698Z,21.01
2018-02-14T11:09:15.644Z,20.89
2018-02-14T11:10:15.663Z,20.76
2018-02-14T11:11:15.643Z,20.76
2018-02-14T11:12:15.612Z,20.92
2018-02-14T11:13:15.587Z,20.91
2018-02-14T11:14:15.589Z,20.98
2018-02-14T11:15:15.538Z,21.04
2018-02-14T11:16:15.536Z,21.12
2018-02-14T11:17:15.497Z,21.09
2018-02-14T11:18:15.516Z,21.22
2018-02-14T11:19:15.478Z,21.32
2018-02-14T11:20:15.447Z,21.32
2018-02-14T11:21:15.428Z,21.32
2018-02-14T11:22:15.431Z,21.37
2018-02-14T11:23:15.429Z,21.22
2018-02-14T11:24:15.374Z,21.34
2018-02-14T11:25:15.353Z,21.29
2018-02-14T11:26:15.334Z,21.14
2018-02-14T11:27:48.533Z,21.09
2018-02-14T11:28:15.334Z,21.01
2018-02-14T11:29:15.279Z,21.01
2018-02-14T11:30:15.301Z,20.92
2018-02-14T11:31:15.277Z,20.73
2018-02-14T11:32:15.230Z,20.69
2018-02-14T11:33:15.240Z,20.79
2018-02-14T11:34:15.190Z,20.77
2018-02-14T11:35:15.169Z,20.82
2018-02-14T11:36:15.189Z,20.88
2018-02-14T11:37:15.138Z,21.04
2018-02-14T11:38:15.146Z,21.12
2018-02-14T11:39:15.126Z,21.07
2018-02-14T11:40:15.074Z,21.07
2018-02-14T11:41:15.061Z,20.99
2018-02-14T11:42:15.043Z,20.99
2018-02-14T11:43:15.055Z,21.07
2018-02-14T11:44:15.034Z,21.09
2018-02-14T11:45:14.989Z,20.98
2018-02-14T11:46:15.000Z,20.79
2018-02-14T11:47:14.980Z,20.87
2018-02-14T11:48:14.962Z,20.92
2018-02-14T11:49:14.908Z,20.91
2018-02-14T11:50:14.889Z,20.88
2018-02-14T11:51:14.874Z,20.82
2018-02-14T11:52:14.888Z,20.77
2018-02-14T11:53:14.833Z,20.89
2018-02-14T11:54:14.870Z,20.88
2018-02-14T11:55:14.833Z,20.74
2018-02-14T11:56:14.782Z,20.47
2018-02-14T11:57:14.793Z,20.16
2018-02-14T11:58:14.741Z,19.87
2018-02-14T11:59:14.725Z,19.74
2018-02-14T12:00:40.393Z,19.63
2018-02-14T12:01:14.717Z,19.65
2018-02-14T12:02:14.684Z,19.47
2018-02-14T12:03:14.682Z,19.48
2018-02-14T12:04:14.661Z,19.56
2018-02-14T12:05:14.629Z,19.59
2018-02-14T12:06:14.616Z,19.46
2018-02-14T12:07:14.593Z,19.50
2018-02-14T12:08:14.568Z,19.56
2018-02-14T12:09:14.552Z,19.43
2018-02-14T12:10:14.531Z,19.54
2018-02-14T12:11:14.511Z,19.50
2018-02-14T12:12:14.490Z,19.51
2018-02-14T12:13:14.473Z,19.63
2018-02-14T12:14:14.455Z,19.69
2018-02-14T12:15:14.432Z,19.63
2018-02-14T12:16:14.414Z,19.65
2018-02-14T12:17:14.401Z,19.63
2018-02-14T12:18:14.378Z,19.65
2018-02-14T12:19:14.366Z,19.81
2018-02-14T12:20:14.330Z,19.96
2018-02-14T12:21:14.319Z,20.06
2018-02-14T12:22:14.304Z,20.10
2018-02-14T12:23:14.274Z,20.32
2018-02-14T12:24:14.250Z,20.59
2018-02-14T12:25:14.227Z,20.61
2018-02-14T12:26:14.224Z,20.73
2018-02-14T12:27:14.196Z,20.85
2018-02-14T12:28:14.182Z,21.07
2018-02-14T12:29:14.152Z,21.35
2018-02-14T12:30:14.141Z,22.03
2018-02-14T12:31:14.117Z,22.62
2018-02-14T12:32:14.103Z,22.92
2018-02-14T12:33:14.084Z,23.02
2018-02-14T12:34:14.064Z,22.98
2018-02-14T12:35:14.048Z,22.76
2018-02-14T12:36:14.040Z,22.49
2018-02-14T12:37:14.017Z,22.43
2018-02-14T12:38:14.010Z,22.30
2018-02-14T12:39:13.998Z,22.36
2018-02-14T12:40:13.968Z,22.09
2018-02-14T12:41:13.950Z,21.99
2018-02-14T12:42:13.944Z,21.82
2018-02-14T12:43:13.928Z,21.77
2018-02-14T12:44:39.584Z,21.75
2018-02-14T12:45:13.910Z,21.92
2018-02-14T12:46:13.880Z,22.10
2018-02-14T12:47:13.851Z,22.18
2018-02-14T12:48:13.834Z,22.22
2018-02-14T12:49:13.813Z,22.05
2018-02-14T12:50:13.809Z,21.96
2018-02-14T12:51:13.796Z,21.99
2018-02-14T12:52:13.782Z,22.05
2018-02-14T12:53:13.759Z,22.00
2018-02-14T12:54:13.731Z,22.06